sensor_id;sensor_type;location;lat;lon;timestamp;pressure;altitude;pressure_sealevel;temperature;humidity
71915;BME280;60387;49.994;14.660;2023-02-22T00:02:05;97762.53;;;12.89;51.12
71915;BME280;60387;49.994;14.660;2023-02-22T00:04:38;97761.63;;;12.94;51.95
71915;BME280;60387;49.994;14.660;2023-02-22T00:07:11;97751.03;;;12.92;51.68
71915;BME280;60387;49.994;14.660;2023-02-22T00:09:45;97745.09;;;12.90;51.80
71915;BME280;60387;49.994;14.660;2023-02-22T00:12:18;97750.41;;;12.87;51.66
71915;BME280;60387;49.994;14.660;2023-02-22T00:14:51;97758.84;;;12.85;52.01
71915;BME280;60387;49.994;14.660;2023-02-22T00:17:24;97753.91;;;12.87;51.94
71915;BME280;60387;49.994;14.660;2023-02-22T00:19:58;97750.69;;;12.85;51.88
71915;BME280;60387;49.994;14.660;2023-02-22T00:22:32;97740.94;;;12.84;52.08
71915;BME280;60387;49.994;14.660;2023-02-22T00:25:05;97746.50;;;12.79;51.88
71915;BME280;60387;49.994;14.660;2023-02-22T00:27:38;97748.09;;;12.80;51.67
71915;BME280;60387;49.994;14.660;2023-02-22T00:30:16;97756.91;;;12.86;51.34
71915;BME280;60387;49.994;14.660;2023-02-22T00:32:50;97761.56;;;12.85;51.85
71915;BME280;60387;49.994;14.660;2023-02-22T00:35:25;97755.50;;;12.88;51.28
71915;BME280;60387;49.994;14.660;2023-02-22T00:38:00;97764.13;;;12.90;51.42
71915;BME280;60387;49.994;14.660;2023-02-22T00:40:34;97765.75;;;12.91;51.20
71915;BME280;60387;49.994;14.660;2023-02-22T00:43:08;97768.16;;;12.93;51.65
71915;BME280;60387;49.994;14.660;2023-02-22T00:45:41;97762.72;;;12.93;51.79
71915;BME280;60387;49.994;14.660;2023-02-22T00:48:15;97768.16;;;12.93;51.39
71915;BME280;60387;49.994;14.660;2023-02-22T00:50:48;97765.41;;;12.93;51.19
71915;BME280;60387;49.994;14.660;2023-02-22T00:53:23;97765.41;;;12.93;51.24
71915;BME280;60387;49.994;14.660;2023-02-22T00:55:57;97762.53;;;12.89;51.66
71915;BME280;60387;49.994;14.660;2023-02-22T00:58:30;97757.59;;;12.91;51.31
71915;BME280;60387;49.994;14.660;2023-02-22T01:01:03;97753.75;;;12.92;51.58
71915;BME280;60387;49.994;14.660;2023-02-22T01:03:37;97751.56;;;12.94;51.58
71915;BME280;60387;49.994;14.660;2023-02-22T01:06:10;97747.22;;;12.93;51.61
71915;BME280;60387;49.994;14.660;2023-02-22T01:08:45;97744.50;;;12.93;51.52
71915;BME280;60387;49.994;14.660;2023-02-22T01:11:18;97745.31;;;12.94;51.31
71915;BME280;60387;49.994;14.660;2023-02-22T01:13:51;97743.41;;;12.94;51.53
71915;BME280;60387;49.994;14.660;2023-02-22T01:16:25;97737.44;;;12.92;51.58
71915;BME280;60387;49.994;14.660;2023-02-22T01:18:58;97735.84;;;12.91;51.53
71915;BME280;60387;49.994;14.660;2023-02-22T01:21:31;97723.69;;;12.89;51.47
71915;BME280;60387;49.994;14.660;2023-02-22T01:24:05;97737.28;;;12.89;51.28
71915;BME280;60387;49.994;14.660;2023-02-22T01:26:38;97728.31;;;12.88;51.91
71915;BME280;60387;49.994;14.660;2023-02-22T01:29:12;97730.84;;;12.85;52.01
71915;BME280;60387;49.994;14.660;2023-02-22T01:31:54;97739.53;;;12.87;51.66
71915;BME280;60387;49.994;14.660;2023-02-22T01:34:27;97731.50;;;12.82;51.26
71915;BME280;60387;49.994;14.660;2023-02-22T01:37:00;97744.13;;;12.86;51.69
71915;BME280;60387;49.994;14.660;2023-02-22T01:39:34;97741.13;;;12.88;51.50
71915;BME280;60387;49.994;14.660;2023-02-22T01:42:10;97741.91;;;12.88;51.28
71915;BME280;60387;49.994;14.660;2023-02-22T01:45:33;97739.66;;;12.90;51.45
71915;BME280;60387;49.994;14.660;2023-02-22T01:48:22;97744.78;;;12.92;51.66
71915;BME280;60387;49.994;14.660;2023-02-22T01:56:26;97736.94;;;12.90;51.08
71915;BME280;60387;49.994;14.660;2023-02-22T01:59:05;97728.31;;;12.88;51.31
71915;BME280;60387;49.994;14.660;2023-02-22T02:01:39;97729.91;;;12.89;51.56
71915;BME280;60387;49.994;14.660;2023-02-22T02:04:18;97738.06;;;12.89;51.66
71915;BME280;60387;49.994;14.660;2023-02-22T02:06:55;97724.16;;;12.82;51.56
71915;BME280;60387;49.994;14.660;2023-02-22T02:09:53;97727.19;;;12.81;51.68
71915;BME280;60387;49.994;14.660;2023-02-22T02:12:32;97727.00;;;12.77;51.60
71915;BME280;60387;49.994;14.660;2023-02-22T02:17:54;97718.19;;;12.72;51.86
71915;BME280;60387;49.994;14.660;2023-02-22T02:29:33;97723.44;;;12.69;52.34
71915;BME280;60387;49.994;14.660;2023-02-22T02:32:24;97718.66;;;12.66;51.95
71915;BME280;60387;49.994;14.660;2023-02-22T02:35:02;97718.31;;;12.67;52.00
71915;BME280;60387;49.994;14.660;2023-02-22T02:40:29;97711.94;;;12.63;52.70
71915;BME280;60387;49.994;14.660;2023-02-22T02:48:52;97705.84;;;12.66;52.46
71915;BME280;60387;49.994;14.660;2023-02-22T02:51:31;97690.38;;;12.67;52.21
71915;BME280;60387;49.994;14.660;2023-02-22T02:54:07;97691.47;;;12.66;52.52
71915;BME280;60387;49.994;14.660;2023-02-22T02:56:41;97693.06;;;12.67;52.54
71915;BME280;60387;49.994;14.660;2023-02-22T02:59:34;97689.25;;;12.68;52.44
71915;BME280;60387;49.994;14.660;2023-02-22T03:08:17;97696.13;;;12.73;52.40
71915;BME280;60387;49.994;14.660;2023-02-22T03:11:02;97696.13;;;12.73;51.98
71915;BME280;60387;49.994;14.660;2023-02-22T03:13:46;97692.78;;;12.77;51.94
71915;BME280;60387;49.994;14.660;2023-02-22T03:16:48;97701.41;;;12.78;52.11
71915;BME280;60387;49.994;14.660;2023-02-22T03:24:41;97693.41;;;12.73;52.15
71915;BME280;60387;49.994;14.660;2023-02-22T03:27:22;97691.19;;;12.76;52.21
71915;BME280;60387;49.994;14.660;2023-02-22T03:30:01;97691.19;;;12.76;52.11
71915;BME280;60387;49.994;14.660;2023-02-22T03:32:38;97679.31;;;12.72;52.13
71915;BME280;60387;49.994;14.660;2023-02-22T03:35:19;97691.97;;;12.76;51.98
71915;BME280;60387;49.994;14.660;2023-02-22T03:37:55;97695.81;;;12.75;52.18
71915;BME280;60387;49.994;14.660;2023-02-22T03:40:33;97685.56;;;12.72;52.23
71915;BME280;60387;49.994;14.660;2023-02-22T03:43:21;97688.13;;;12.69;52.52
71915;BME280;60387;49.994;14.660;2023-02-22T03:45:57;97681.41;;;12.66;52.92
71915;BME280;60387;49.994;14.660;2023-02-22T03:48:47;97674.31;;;12.57;52.62
71915;BME280;60387;49.994;14.660;2023-02-22T03:51:22;97677.84;;;12.57;52.98
71915;BME280;60387;49.994;14.660;2023-02-22T03:53:56;97682.47;;;12.57;53.01
71915;BME280;60387;49.994;14.660;2023-02-22T03:56:38;97689.53;;;12.58;52.84
71915;BME280;60387;49.994;14.660;2023-02-22T03:59:12;97685.19;;;12.57;53.01
71915;BME280;60387;49.994;14.660;2023-02-22T04:01:46;97680.09;;;12.55;53.15
71915;BME280;60387;49.994;14.660;2023-02-22T04:04:19;97688.25;;;12.55;53.26
71915;BME280;60387;49.994;14.660;2023-02-22T04:06:52;97680.38;;;12.54;52.86
71915;BME280;60387;49.994;14.660;2023-02-22T04:09:26;97693.97;;;12.54;53.39
71915;BME280;60387;49.994;14.660;2023-02-22T04:11:59;97682.16;;;12.50;53.29
71915;BME280;60387;49.994;14.660;2023-02-22T04:14:33;97675.41;;;12.47;53.92
71915;BME280;60387;49.994;14.660;2023-02-22T04:17:06;97674.31;;;12.48;53.17
71915;BME280;60387;49.994;14.660;2023-02-22T04:19:39;97683.28;;;12.49;52.99
71915;BME280;60387;49.994;14.660;2023-02-22T04:22:12;97683.28;;;12.49;53.27
71915;BME280;60387;49.994;14.660;2023-02-22T04:24:46;97679.44;;;12.50;53.67
71915;BME280;60387;49.994;14.660;2023-02-22T04:27:19;97673.50;;;12.48;53.42
71915;BME280;60387;49.994;14.660;2023-02-22T04:29:52;97669.50;;;12.45;53.08
71915;BME280;60387;49.994;14.660;2023-02-22T04:32:26;97676.19;;;12.48;53.26
71915;BME280;60387;49.994;14.660;2023-02-22T04:34:59;97670.78;;;12.48;53.45
71915;BME280;60387;49.994;14.660;2023-02-22T04:37:32;97673.50;;;12.48;53.57
71915;BME280;60387;49.994;14.660;2023-02-22T04:40:06;97666.16;;;12.48;53.09
71915;BME280;60387;49.994;14.660;2023-02-22T04:42:39;97661.84;;;12.47;53.35
71915;BME280;60387;49.994;14.660;2023-02-22T04:45:13;97669.34;;;12.50;53.07
71915;BME280;60387;49.994;14.660;2023-02-22T04:47:46;97664.25;;;12.49;54.10
71915;BME280;60387;49.994;14.660;2023-02-22T04:50:19;97654.47;;;12.48;54.00
71915;BME280;60387;49.994;14.660;2023-02-22T04:52:53;97663.75;;;12.47;53.82
71915;BME280;60387;49.994;14.660;2023-02-22T04:55:26;97655.59;;;12.47;53.59
71915;BME280;60387;49.994;14.660;2023-02-22T04:57:59;97641.34;;;12.41;53.65
71915;BME280;60387;49.994;14.660;2023-02-22T05:00:33;97654.63;;;12.43;53.98
71915;BME280;60387;49.994;14.660;2023-02-22T05:03:06;97649.81;;;12.40;54.35
71915;BME280;60387;49.994;14.660;2023-02-22T05:05:39;97649.03;;;12.39;53.76
71915;BME280;60387;49.994;14.660;2023-02-22T05:08:13;97651.56;;;12.36;54.07
71915;BME280;60387;49.994;14.660;2023-02-22T05:10:46;97654.47;;;12.39;53.58
71915;BME280;60387;49.994;14.660;2023-02-22T05:13:19;97658.59;;;12.37;53.87
71915;BME280;60387;49.994;14.660;2023-02-22T05:15:53;97663.72;;;12.38;53.62
71915;BME280;60387;49.994;14.660;2023-02-22T05:18:26;97657.47;;;12.38;54.14
71915;BME280;60387;49.994;14.660;2023-02-22T05:20:59;97654.47;;;12.39;53.74
71915;BME280;60387;49.994;14.660;2023-02-22T05:23:33;97658.47;;;12.42;53.77
71915;BME280;60387;49.994;14.660;2023-02-22T05:26:06;97652.22;;;12.41;53.38
71915;BME280;60387;49.994;14.660;2023-02-22T05:28:39;97653.03;;;12.42;53.79
71915;BME280;60387;49.994;14.660;2023-02-22T05:31:13;97656.53;;;12.42;53.75
71915;BME280;60387;49.994;14.660;2023-02-22T05:33:46;97652.38;;;12.45;53.81
71915;BME280;60387;49.994;14.660;2023-02-22T05:36:19;97649.50;;;12.41;53.47
71915;BME280;60387;49.994;14.660;2023-02-22T05:38:53;97652.53;;;12.40;53.76
71915;BME280;60387;49.994;14.660;2023-02-22T05:41:27;97658.47;;;12.42;53.44
71915;BME280;60387;49.994;14.660;2023-02-22T05:44:00;97656.22;;;12.44;53.24
71915;BME280;60387;49.994;14.660;2023-02-22T05:46:33;97658.47;;;12.42;53.61
71915;BME280;60387;49.994;14.660;2023-02-22T05:49:07;97659.06;;;12.39;53.60
71915;BME280;60387;49.994;14.660;2023-02-22T05:51:40;97665.50;;;12.43;53.46
71915;BME280;60387;49.994;14.660;2023-02-22T05:54:13;97680.69;;;12.44;53.23
71915;BME280;60387;49.994;14.660;2023-02-22T05:56:47;97666.63;;;12.42;53.41
71915;BME280;60387;49.994;14.660;2023-02-22T05:59:20;97663.91;;;12.42;53.45
71915;BME280;60387;49.994;14.660;2023-02-22T06:01:53;97656.88;;;12.41;53.69
71915;BME280;60387;49.994;14.660;2023-02-22T06:04:27;97664.19;;;12.40;53.81
71915;BME280;60387;49.994;14.660;2023-02-22T06:07:00;97679.38;;;12.41;53.51
71915;BME280;60387;49.994;14.660;2023-02-22T06:09:33;97675.06;;;12.40;53.40
71915;BME280;60387;49.994;14.660;2023-02-22T06:12:07;97680.19;;;12.42;53.48
71915;BME280;60387;49.994;14.660;2023-02-22T06:14:41;97668.53;;;12.41;53.12
71915;BME280;60387;49.994;14.660;2023-02-22T06:17:15;97669.34;;;12.42;53.66
71915;BME280;60387;49.994;14.660;2023-02-22T06:19:48;97661.00;;;12.38;54.16
71915;BME280;60387;49.994;14.660;2023-02-22T06:22:22;97674.09;;;12.36;54.08
71915;BME280;60387;49.994;14.660;2023-02-22T06:24:55;97679.22;;;12.38;54.09
71915;BME280;60387;49.994;14.660;2023-02-22T06:27:32;97684.63;;;12.38;53.72
71915;BME280;60387;49.994;14.660;2023-02-22T06:30:06;97679.69;;;12.40;53.42
71915;BME280;60387;49.994;14.660;2023-02-22T06:32:40;97676.00;;;12.36;53.78
71915;BME280;60387;49.994;14.660;2023-02-22T06:35:14;97686.41;;;12.42;53.90
71915;BME280;60387;49.994;14.660;2023-02-22T06:37:48;97689.94;;;12.43;54.06
71915;BME280;60387;49.994;14.660;2023-02-22T06:40:21;97694.25;;;12.44;53.62
71915;BME280;60387;49.994;14.660;2023-02-22T06:42:55;97686.13;;;12.44;54.02
71915;BME280;60387;49.994;14.660;2023-02-22T06:45:29;97687.72;;;12.45;53.67
71915;BME280;60387;49.994;14.660;2023-02-22T06:48:03;97694.25;;;12.44;53.75
71915;BME280;60387;49.994;14.660;2023-02-22T06:50:36;97697.94;;;12.48;54.67
71915;BME280;60387;49.994;14.660;2023-02-22T06:53:09;97696.34;;;12.47;54.29
71915;BME280;60387;49.994;14.660;2023-02-22T06:55:43;97703.72;;;12.46;53.77
71915;BME280;60387;49.994;14.660;2023-02-22T06:58:16;97703.72;;;12.46;53.90
71915;BME280;60387;49.994;14.660;2023-02-22T07:00:49;97700.06;;;12.51;53.93
71915;BME280;60387;49.994;14.660;2023-02-22T07:03:23;97700.53;;;12.53;53.63
71915;BME280;60387;49.994;14.660;2023-02-22T07:05:56;97700.06;;;12.59;53.97
71915;BME280;60387;49.994;14.660;2023-02-22T07:08:29;97702.97;;;12.63;53.79
71915;BME280;60387;49.994;14.660;2023-02-22T07:11:03;97701.72;;;12.69;53.54
71915;BME280;60387;49.994;14.660;2023-02-22T07:13:36;97706.69;;;12.75;53.78
71915;BME280;60387;49.994;14.660;2023-02-22T07:16:09;97700.78;;;12.81;53.83
71915;BME280;60387;49.994;14.660;2023-02-22T07:18:43;97688.81;;;12.82;53.77
71915;BME280;60387;49.994;14.660;2023-02-22T07:21:16;97696.81;;;12.87;53.71
71915;BME280;60387;49.994;14.660;2023-02-22T07:23:51;97695.06;;;12.91;53.61
71915;BME280;60387;49.994;14.660;2023-02-22T07:26:26;97702.31;;;12.96;53.42
71915;BME280;60387;49.994;14.660;2023-02-22T07:28:59;97693.19;;;13.00;53.32
71915;BME280;60387;49.994;14.660;2023-02-22T07:31:37;97696.72;;;13.09;53.41
71915;BME280;60387;49.994;14.660;2023-02-22T07:34:10;97700.88;;;13.15;53.35
71915;BME280;60387;49.994;14.660;2023-02-22T07:36:43;97701.22;;;13.22;53.15
71915;BME280;60387;49.994;14.660;2023-02-22T07:39:17;97702.69;;;13.28;53.50
71915;BME280;60387;49.994;14.660;2023-02-22T07:41:50;97697.22;;;13.37;53.47
71915;BME280;60387;49.994;14.660;2023-02-22T07:44:23;97691.16;;;13.40;53.18
71915;BME280;60387;49.994;14.660;2023-02-22T07:46:57;97701.09;;;13.44;53.42
71915;BME280;60387;49.994;14.660;2023-02-22T07:49:30;97699.94;;;13.37;53.68
71915;BME280;60387;49.994;14.660;2023-02-22T07:52:03;97691.16;;;13.40;53.31
71915;BME280;60387;49.994;14.660;2023-02-22T07:54:37;97699.31;;;13.48;53.54
71915;BME280;60387;49.994;14.660;2023-02-22T07:57:10;97697.56;;;13.52;53.65
71915;BME280;60387;49.994;14.660;2023-02-22T07:59:44;97695.16;;;13.59;53.44
71915;BME280;60387;49.994;14.660;2023-02-22T08:02:24;97696.28;;;13.67;53.17
71915;BME280;60387;49.994;14.660;2023-02-22T08:04:57;97703.31;;;13.76;53.25
71915;BME280;60387;49.994;14.660;2023-02-22T08:07:31;97710.34;;;13.86;52.83
71915;BME280;60387;49.994;14.660;2023-02-22T08:10:06;97698.97;;;13.92;53.24
71915;BME280;60387;49.994;14.660;2023-02-22T08:12:40;97701.53;;;13.97;53.14
71915;BME280;60387;49.994;14.660;2023-02-22T08:15:20;97701.69;;;14.01;52.63
71915;BME280;60387;49.994;14.660;2023-02-22T08:17:54;97701.19;;;14.07;52.83
71915;BME280;60387;49.994;14.660;2023-02-22T08:20:28;97697.16;;;14.13;52.89
71915;BME280;60387;49.994;14.660;2023-02-22T08:23:01;97695.91;;;14.19;53.06
71915;BME280;60387;49.994;14.660;2023-02-22T08:25:35;97695.88;;;14.28;52.95
71915;BME280;60387;49.994;14.660;2023-02-22T08:28:11;97702.09;;;14.37;52.80
71915;BME280;60387;49.994;14.660;2023-02-22T08:30:45;97703.22;;;14.44;52.55
71915;BME280;60387;49.994;14.660;2023-02-22T08:33:18;97706.22;;;14.51;52.30
71915;BME280;60387;49.994;14.660;2023-02-22T08:35:52;97701.72;;;14.55;52.36
71915;BME280;60387;49.994;14.660;2023-02-22T08:38:30;97700.72;;;14.60;52.27
71915;BME280;60387;49.994;14.660;2023-02-22T08:41:03;97702.00;;;14.62;52.36
71915;BME280;60387;49.994;14.660;2023-02-22T08:43:37;97702.44;;;14.73;52.35
71915;BME280;60387;49.994;14.660;2023-02-22T08:46:10;97705.31;;;14.76;51.99
71915;BME280;60387;49.994;14.660;2023-02-22T08:48:50;97706.56;;;14.87;52.07
71915;BME280;60387;49.994;14.660;2023-02-22T08:51:24;97702.94;;;14.95;52.00
71915;BME280;60387;49.994;14.660;2023-02-22T08:53:57;97704.72;;;15.00;51.70
71915;BME280;60387;49.994;14.660;2023-02-22T08:56:31;97705.97;;;15.02;50.72
71915;BME280;60387;49.994;14.660;2023-02-22T08:59:04;97699.59;;;14.98;50.45
71915;BME280;60387;49.994;14.660;2023-02-22T09:01:37;97713.06;;;14.95;50.55
71915;BME280;60387;49.994;14.660;2023-02-22T09:04:11;97694.97;;;14.90;50.81
71915;BME280;60387;49.994;14.660;2023-02-22T09:06:44;97692.25;;;14.90;50.84
71915;BME280;60387;49.994;14.660;2023-02-22T09:09:18;97705.69;;;14.95;50.84
71915;BME280;60387;49.994;14.660;2023-02-22T09:11:52;97699.44;;;14.95;50.96
71915;BME280;60387;49.994;14.660;2023-02-22T09:14:25;97705.81;;;14.99;50.07
71915;BME280;60387;49.994;14.660;2023-02-22T09:16:59;97703.59;;;15.01;50.76
71915;BME280;60387;49.994;14.660;2023-02-22T09:19:32;97704.19;;;15.06;50.57
71915;BME280;60387;49.994;14.660;2023-02-22T09:22:05;97705.13;;;15.10;50.79
71915;BME280;60387;49.994;14.660;2023-02-22T09:24:38;97694.66;;;15.12;50.57
71915;BME280;60387;49.994;14.660;2023-02-22T09:27:12;97699.75;;;15.22;50.52
71915;BME280;60387;49.994;14.660;2023-02-22T09:29:47;97702.44;;;15.31;50.68
71915;BME280;60387;49.994;14.660;2023-02-22T09:32:24;97689.75;;;15.35;50.40
71915;BME280;60387;49.994;14.660;2023-02-22T09:34:57;97703.00;;;15.45;49.20
71915;BME280;60387;49.994;14.660;2023-02-22T09:37:31;97696.09;;;15.47;49.63
71915;BME280;60387;49.994;14.660;2023-02-22T09:40:04;97697.31;;;15.50;49.13
71915;BME280;60387;49.994;14.660;2023-02-22T09:42:44;97702.31;;;15.48;49.71
71915;BME280;60387;49.994;14.660;2023-02-22T09:45:23;97699.59;;;15.48;49.25
71915;BME280;60387;49.994;14.660;2023-02-22T09:48:02;97695.28;;;15.47;49.55
71915;BME280;60387;49.994;14.660;2023-02-22T09:50:39;97687.66;;;15.52;49.82
71915;BME280;60387;49.994;14.660;2023-02-22T09:55:58;97693.00;;;15.69;49.95
71915;BME280;60387;49.994;14.660;2023-02-22T09:58:54;97694.84;;;15.77;49.03
71915;BME280;60387;49.994;14.660;2023-02-22T10:01:29;97698.16;;;15.83;49.32
71915;BME280;60387;49.994;14.660;2023-02-22T10:04:32;97694.91;;;15.89;49.71
71915;BME280;60387;49.994;14.660;2023-02-22T10:07:15;97690.50;;;15.97;49.30
71915;BME280;60387;49.994;14.660;2023-02-22T10:09:50;97688.34;;;16.02;49.42
71915;BME280;60387;49.994;14.660;2023-02-22T10:12:40;97690.19;;;16.10;49.48
71915;BME280;60387;49.994;14.660;2023-02-22T10:15:28;97679.28;;;16.22;49.67
71915;BME280;60387;49.994;14.660;2023-02-22T10:18:29;97689.13;;;16.35;49.47
71915;BME280;60387;49.994;14.660;2023-02-22T10:24:33;97680.88;;;16.55;49.18
71915;BME280;60387;49.994;14.660;2023-02-22T10:27:31;97687.38;;;16.63;48.94
71915;BME280;60387;49.994;14.660;2023-02-22T10:32:44;97682.00;;;16.78;47.99
71915;BME280;60387;49.994;14.660;2023-02-22T10:35:26;97666.19;;;16.84;48.36
71915;BME280;60387;49.994;14.660;2023-02-22T10:38:22;97670.75;;;16.92;47.87
71915;BME280;60387;49.994;14.660;2023-02-22T10:43:33;97662.75;;;16.99;48.01
71915;BME280;60387;49.994;14.660;2023-02-22T10:46:12;97662.97;;;17.06;48.21
71915;BME280;60387;49.994;14.660;2023-02-22T10:48:50;97666.84;;;17.17;47.69
71915;BME280;60387;49.994;14.660;2023-02-22T10:51:24;97649.25;;;17.30;48.01
71915;BME280;60387;49.994;14.660;2023-02-22T10:54:20;97659.06;;;17.43;47.40
71915;BME280;60387;49.994;14.660;2023-02-22T10:56:55;97662.56;;;17.55;47.54
71915;BME280;60387;49.994;14.660;2023-02-22T10:59:36;97657.47;;;17.69;47.78
71915;BME280;60387;49.994;14.660;2023-02-22T11:04:52;97657.13;;;17.98;48.01
71915;BME280;60387;49.994;14.660;2023-02-22T11:07:29;97651.69;;;18.14;47.76
71915;BME280;60387;49.994;14.660;2023-02-22T11:10:07;97648.97;;;18.29;47.54
71915;BME280;60387;49.994;14.660;2023-02-22T11:12:41;97643.69;;;18.36;46.51
71915;BME280;60387;49.994;14.660;2023-02-22T11:15:26;97642.88;;;18.36;46.00
71915;BME280;60387;49.994;14.660;2023-02-22T11:17:59;97638.34;;;18.28;46.37
71915;BME280;60387;49.994;14.660;2023-02-22T11:20:36;97638.59;;;18.23;45.04
71915;BME280;60387;49.994;14.660;2023-02-22T11:23:11;97624.16;;;18.10;45.20
71915;BME280;60387;49.994;14.660;2023-02-22T11:25:44;97630.16;;;18.00;45.96
71915;BME280;60387;49.994;14.660;2023-02-22T11:28:26;97634.56;;;17.89;45.54
71915;BME280;60387;49.994;14.660;2023-02-22T11:31:16;97611.94;;;17.65;44.16
71915;BME280;60387;49.994;14.660;2023-02-22T11:34:00;97635.47;;;17.66;45.43
71915;BME280;60387;49.994;14.660;2023-02-22T11:36:35;97630.91;;;17.58;45.35
71915;BME280;60387;49.994;14.660;2023-02-22T11:39:29;97628.69;;;17.48;45.21
71915;BME280;60387;49.994;14.660;2023-02-22T11:42:24;97619.56;;;17.44;45.77
71915;BME280;60387;49.994;14.660;2023-02-22T11:45:24;97616.03;;;17.43;45.12
71915;BME280;60387;49.994;14.660;2023-02-22T11:48:02;97614.53;;;17.34;44.73
71915;BME280;60387;49.994;14.660;2023-02-22T11:53:18;97614.47;;;17.30;45.24
71915;BME280;60387;49.994;14.660;2023-02-22T12:01:49;97608.09;;;17.14;44.16
71915;BME280;60387;49.994;14.660;2023-02-22T12:04:34;97599.78;;;17.11;44.43
71915;BME280;60387;49.994;14.660;2023-02-22T12:07:39;97600.47;;;17.08;44.94
71915;BME280;60387;49.994;14.660;2023-02-22T12:13:42;97597.81;;;17.11;45.32
71915;BME280;60387;49.994;14.660;2023-02-22T12:19:18;97596.66;;;17.24;44.71
71915;BME280;60387;49.994;14.660;2023-02-22T12:21:58;97593.13;;;17.36;43.05
71915;BME280;60387;49.994;14.660;2023-02-22T12:24:37;97588.63;;;17.43;43.23
71915;BME280;60387;49.994;14.660;2023-02-22T12:27:23;97586.25;;;17.42;42.87
71915;BME280;60387;49.994;14.660;2023-02-22T12:30:06;97589.69;;;17.39;43.96
71915;BME280;60387;49.994;14.660;2023-02-22T12:32:54;97577.59;;;17.40;44.25
71915;BME280;60387;49.994;14.660;2023-02-22T12:35:50;97582.97;;;17.36;42.85
71915;BME280;60387;49.994;14.660;2023-02-22T12:38:44;97589.44;;;17.32;44.21
71915;BME280;60387;49.994;14.660;2023-02-22T12:41:36;97587.16;;;17.34;43.97
71915;BME280;60387;49.994;14.660;2023-02-22T12:44:22;97577.34;;;17.33;43.29
71915;BME280;60387;49.994;14.660;2023-02-22T12:46:57;97581.94;;;17.29;44.16
71915;BME280;60387;49.994;14.660;2023-02-22T12:52:22;97575.66;;;17.40;43.54
71915;BME280;60387;49.994;14.660;2023-02-22T12:57:59;97570.53;;;17.39;42.77
71915;BME280;60387;49.994;14.660;2023-02-22T13:00:47;97573.25;;;17.39;43.63
71915;BME280;60387;49.994;14.660;2023-02-22T13:03:35;97574.50;;;17.41;43.89
71915;BME280;60387;49.994;14.660;2023-02-22T13:12:02;97578.75;;;17.27;43.78
71915;BME280;60387;49.994;14.660;2023-02-22T13:20:52;97567.44;;;16.89;44.41
71915;BME280;60387;49.994;14.660;2023-02-22T13:23:32;97564.69;;;16.89;44.22
71915;BME280;60387;49.994;14.660;2023-02-22T13:26:25;97568.41;;;16.69;44.61
71915;BME280;60387;49.994;14.660;2023-02-22T13:29:08;97566.00;;;16.67;44.62
71915;BME280;60387;49.994;14.660;2023-02-22T13:31:53;97559.75;;;16.67;44.76
71915;BME280;60387;49.994;14.660;2023-02-22T13:49:35;97565.88;;;16.40;45.51
71915;BME280;60387;49.994;14.660;2023-02-22T13:52:13;97561.75;;;16.22;45.67
71915;BME280;60387;49.994;14.660;2023-02-22T13:54:50;97567.13;;;16.30;45.78
71915;BME280;60387;49.994;14.660;2023-02-22T13:57:28;97562.25;;;16.24;45.96
71915;BME280;60387;49.994;14.660;2023-02-22T14:06:03;97564.38;;;15.95;46.43
71915;BME280;60387;49.994;14.660;2023-02-22T14:08:38;97563.09;;;15.92;46.70
71915;BME280;60387;49.994;14.660;2023-02-22T14:16:28;97559.00;;;15.86;46.71
71915;BME280;60387;49.994;14.660;2023-02-22T14:22:03;97561.47;;;15.79;46.87
71915;BME280;60387;49.994;14.660;2023-02-22T14:24:47;97555.56;;;15.77;46.75
71915;BME280;60387;49.994;14.660;2023-02-22T14:27:21;97561.34;;;15.76;47.00
71915;BME280;60387;49.994;14.660;2023-02-22T14:29:58;97558.97;;;15.74;47.09
71915;BME280;60387;49.994;14.660;2023-02-22T14:32:33;97549.72;;;15.67;47.29
71915;BME280;60387;49.994;14.660;2023-02-22T14:35:13;97549.81;;;15.58;47.70
71915;BME280;60387;49.994;14.660;2023-02-22T14:37:51;97552.81;;;15.65;47.37
71915;BME280;60387;49.994;14.660;2023-02-22T14:40:29;97552.44;;;15.67;47.45
71915;BME280;60387;49.994;14.660;2023-02-22T14:43:13;97553.25;;;15.67;47.38
71915;BME280;60387;49.994;14.660;2023-02-22T14:45:51;97550.31;;;15.72;47.44
71915;BME280;60387;49.994;14.660;2023-02-22T14:51:32;97550.19;;;15.69;47.62
71915;BME280;60387;49.994;14.660;2023-02-22T14:54:38;97545.97;;;15.71;47.71
71915;BME280;60387;49.994;14.660;2023-02-22T14:57:24;97543.13;;;15.68;47.50
71915;BME280;60387;49.994;14.660;2023-02-22T15:00:27;97545.53;;;15.69;47.62
71915;BME280;60387;49.994;14.660;2023-02-22T15:05:50;97537.91;;;15.63;47.59
71915;BME280;60387;49.994;14.660;2023-02-22T15:08:23;97543.22;;;15.59;47.96
71915;BME280;60387;49.994;14.660;2023-02-22T15:10:57;97536.59;;;15.48;47.59
71915;BME280;60387;49.994;14.660;2023-02-22T15:13:30;97544.66;;;15.45;47.77
71915;BME280;60387;49.994;14.660;2023-02-22T15:16:04;97545.44;;;15.45;47.97
71915;BME280;60387;49.994;14.660;2023-02-22T15:18:42;97545.00;;;15.43;47.63
71915;BME280;60387;49.994;14.660;2023-02-22T15:21:20;97548.28;;;15.37;47.68
71915;BME280;60387;49.994;14.660;2023-02-22T15:23:55;97549.19;;;15.41;47.76
71915;BME280;60387;49.994;14.660;2023-02-22T15:26:36;97541.09;;;15.32;47.78
71915;BME280;60387;49.994;14.660;2023-02-22T15:29:14;97545.59;;;15.28;47.92
71915;BME280;60387;49.994;14.660;2023-02-22T15:31:48;97548.81;;;15.30;47.72
71915;BME280;60387;49.994;14.660;2023-02-22T15:34:30;97548.28;;;15.16;48.05
71915;BME280;60387;49.994;14.660;2023-02-22T15:37:21;97544.72;;;15.16;47.84
71915;BME280;60387;49.994;14.660;2023-02-22T15:40:06;97550.16;;;15.04;48.27
71915;BME280;60387;49.994;14.660;2023-02-22T15:42:48;97541.38;;;14.98;48.08